sensor_id;sensor_type;location;lat;lon;timestamp;P1;durP1;ratioP1;P2;durP2;ratioP2
15936;SDS011;9163;48.818;8.976;2022-07-29T00:01:21;7.93;;;7.13;;
15936;SDS011;9163;48.818;8.976;2022-07-29T00:03:48;7.73;;;6.70;;
15936;SDS011;9163;48.818;8.976;2022-07-29T00:06:16;7.30;;;6.43;;
15936;SDS011;9163;48.818;8.976;2022-07-29T00:08:43;7.73;;;6.93;;
15936;SDS011;9163;48.818;8.976;2022-07-29T00:11:11;7.33;;;6.63;;
15936;SDS011;9163;48.818;8.976;2022-07-29T00:13:38;7.80;;;6.90;;
15936;SDS011;9163;48.818;8.976;2022-07-29T00:16:07;8.57;;;7.53;;
15936;SDS011;9163;48.818;8.976;2022-07-29T00:18:34;9.13;;;7.80;;
15936;SDS011;9163;48.818;8.976;2022-07-29T00:21:02;8.77;;;7.17;;
15936;SDS011;9163;48.818;8.976;2022-07-29T00:23:29;7.47;;;6.70;;
15936;SDS011;9163;48.818;8.976;2022-07-29T00:25:57;7.67;;;6.97;;
15936;SDS011;9163;48.818;8.976;2022-07-29T00:28:24;8.03;;;7.30;;
15936;SDS011;9163;48.818;8.976;2022-07-29T00:30:51;8.17;;;7.40;;
15936;SDS011;9163;48.818;8.976;2022-07-29T00:33:20;8.10;;;7.30;;
15936;SDS011;9163;48.818;8.976;2022-07-29T00:35:49;7.50;;;6.63;;
15936;SDS011;9163;48.818;8.976;2022-07-29T00:38:16;7.80;;;6.97;;
15936;SDS011;9163;48.818;8.976;2022-07-29T00:40:45;7.80;;;7.03;;
15936;SDS011;9163;48.818;8.976;2022-07-29T00:43:13;9.47;;;7.33;;
15936;SDS011;9163;48.818;8.976;2022-07-29T00:45:41;8.70;;;7.90;;
15936;SDS011;9163;48.818;8.976;2022-07-29T00:48:09;8.27;;;6.87;;
15936;SDS011;9163;48.818;8.976;2022-07-29T00:50:38;9.03;;;7.27;;
15936;SDS011;9163;48.818;8.976;2022-07-29T00:53:06;9.10;;;7.10;;
15936;SDS011;9163;48.818;8.976;2022-07-29T00:55:33;7.97;;;7.17;;
15936;SDS011;9163;48.818;8.976;2022-07-29T00:58:01;8.40;;;7.13;;
15936;SDS011;9163;48.818;8.976;2022-07-29T01:00:29;7.13;;;6.43;;
15936;SDS011;9163;48.818;8.976;2022-07-29T01:02:57;8.83;;;6.90;;
15936;SDS011;9163;48.818;8.976;2022-07-29T01:05:25;7.67;;;6.97;;
15936;SDS011;9163;48.818;8.976;2022-07-29T01:07:55;7.97;;;7.10;;
15936;SDS011;9163;48.818;8.976;2022-07-29T01:10:24;8.17;;;7.33;;
15936;SDS011;9163;48.818;8.976;2022-07-29T01:12:53;10.30;;;7.37;;
15936;SDS011;9163;48.818;8.976;2022-07-29T01:15:23;8.60;;;7.67;;
15936;SDS011;9163;48.818;8.976;2022-07-29T01:17:52;8.53;;;7.50;;
15936;SDS011;9163;48.818;8.976;2022-07-29T01:20:26;9.10;;;7.50;;
15936;SDS011;9163;48.818;8.976;2022-07-29T01:23:22;8.67;;;7.87;;
15936;SDS011;9163;48.818;8.976;2022-07-29T01:26:22;8.33;;;7.30;;
15936;SDS011;9163;48.818;8.976;2022-07-29T01:29:05;9.77;;;7.93;;
15936;SDS011;9163;48.818;8.976;2022-07-29T01:31:45;8.60;;;7.57;;
15936;SDS011;9163;48.818;8.976;2022-07-29T01:34:18;9.03;;;7.40;;
15936;SDS011;9163;48.818;8.976;2022-07-29T01:36:50;9.23;;;8.00;;
15936;SDS011;9163;48.818;8.976;2022-07-29T01:39:26;8.87;;;7.70;;
15936;SDS011;9163;48.818;8.976;2022-07-29T01:41:58;7.73;;;6.93;;
15936;SDS011;9163;48.818;8.976;2022-07-29T01:44:34;7.87;;;7.07;;
15936;SDS011;9163;48.818;8.976;2022-07-29T01:47:05;9.40;;;7.67;;
15936;SDS011;9163;48.818;8.976;2022-07-29T01:49:39;8.57;;;7.17;;
15936;SDS011;9163;48.818;8.976;2022-07-29T01:52:13;8.70;;;7.90;;
15936;SDS011;9163;48.818;8.976;2022-07-29T01:54:52;8.50;;;7.47;;
15936;SDS011;9163;48.818;8.976;2022-07-29T01:57:25;9.07;;;7.33;;
15936;SDS011;9163;48.818;8.976;2022-07-29T01:59:58;7.97;;;7.13;;
15936;SDS011;9163;48.818;8.976;2022-07-29T02:02:27;7.83;;;7.13;;
15936;SDS011;9163;48.818;8.976;2022-07-29T02:04:56;9.80;;;6.83;;
15936;SDS011;9163;48.818;8.976;2022-07-29T02:07:26;7.60;;;6.80;;
15936;SDS011;9163;48.818;8.976;2022-07-29T02:09:55;8.80;;;6.97;;
15936;SDS011;9163;48.818;8.976;2022-07-29T02:12:25;7.23;;;6.53;;
15936;SDS011;9163;48.818;8.976;2022-07-29T02:14:53;7.53;;;6.70;;
15936;SDS011;9163;48.818;8.976;2022-07-29T02:17:25;10.03;;;6.70;;
15936;SDS011;9163;48.818;8.976;2022-07-29T02:19:56;7.53;;;6.73;;
15936;SDS011;9163;48.818;8.976;2022-07-29T02:22:26;9.33;;;7.53;;
15936;SDS011;9163;48.818;8.976;2022-07-29T02:24:56;7.70;;;7.00;;
15936;SDS011;9163;48.818;8.976;2022-07-29T02:27:24;7.50;;;6.77;;
15936;SDS011;9163;48.818;8.976;2022-07-29T02:29:53;7.30;;;6.60;;
15936;SDS011;9163;48.818;8.976;2022-07-29T02:32:25;7.13;;;6.43;;
15936;SDS011;9163;48.818;8.976;2022-07-29T02:34:54;7.37;;;6.67;;
15936;SDS011;9163;48.818;8.976;2022-07-29T02:37:23;6.73;;;6.13;;
15936;SDS011;9163;48.818;8.976;2022-07-29T02:39:52;7.23;;;5.83;;
15936;SDS011;9163;48.818;8.976;2022-07-29T02:42:21;7.60;;;6.47;;
15936;SDS011;9163;48.818;8.976;2022-07-29T02:44:50;8.77;;;6.30;;
15936;SDS011;9163;48.818;8.976;2022-07-29T02:47:18;7.97;;;6.30;;
15936;SDS011;9163;48.818;8.976;2022-07-29T02:49:55;8.57;;;6.87;;
15936;SDS011;9163;48.818;8.976;2022-07-29T02:52:26;7.23;;;6.60;;
15936;SDS011;9163;48.818;8.976;2022-07-29T02:54:56;9.70;;;6.90;;
15936;SDS011;9163;48.818;8.976;2022-07-29T02:57:29;7.60;;;6.80;;
15936;SDS011;9163;48.818;8.976;2022-07-29T03:00:01;7.53;;;6.70;;
15936;SDS011;9163;48.818;8.976;2022-07-29T03:02:33;9.53;;;6.97;;
15936;SDS011;9163;48.818;8.976;2022-07-29T03:05:04;7.73;;;6.80;;
15936;SDS011;9163;48.818;8.976;2022-07-29T03:07:34;8.03;;;6.77;;
15936;SDS011;9163;48.818;8.976;2022-07-29T03:10:04;9.30;;;7.30;;
15936;SDS011;9163;48.818;8.976;2022-07-29T03:12:33;7.13;;;6.30;;
15936;SDS011;9163;48.818;8.976;2022-07-29T03:15:01;7.33;;;6.63;;
15936;SDS011;9163;48.818;8.976;2022-07-29T03:17:29;6.80;;;6.10;;
15936;SDS011;9163;48.818;8.976;2022-07-29T03:19:57;7.90;;;6.10;;
15936;SDS011;9163;48.818;8.976;2022-07-29T03:22:27;6.33;;;5.73;;
15936;SDS011;9163;48.818;8.976;2022-07-29T03:24:55;6.23;;;5.73;;
15936;SDS011;9163;48.818;8.976;2022-07-29T03:27:22;9.13;;;5.87;;
15936;SDS011;9163;48.818;8.976;2022-07-29T03:29:50;5.40;;;4.90;;
15936;SDS011;9163;48.818;8.976;2022-07-29T03:32:17;5.97;;;5.43;;
15936;SDS011;9163;48.818;8.976;2022-07-29T03:34:44;5.43;;;4.90;;
15936;SDS011;9163;48.818;8.976;2022-07-29T03:37:12;4.50;;;4.10;;
15936;SDS011;9163;48.818;8.976;2022-07-29T03:39:40;4.63;;;4.00;;
15936;SDS011;9163;48.818;8.976;2022-07-29T03:42:10;4.47;;;4.07;;
15936;SDS011;9163;48.818;8.976;2022-07-29T03:44:41;4.83;;;4.30;;
15936;SDS011;9163;48.818;8.976;2022-07-29T03:47:12;4.03;;;3.60;;
15936;SDS011;9163;48.818;8.976;2022-07-29T03:49:41;4.30;;;3.90;;
15936;SDS011;9163;48.818;8.976;2022-07-29T03:52:11;4.30;;;3.73;;
15936;SDS011;9163;48.818;8.976;2022-07-29T03:54:39;3.83;;;3.53;;
15936;SDS011;9163;48.818;8.976;2022-07-29T03:57:08;4.80;;;3.80;;
15936;SDS011;9163;48.818;8.976;2022-07-29T03:59:38;4.27;;;3.87;;
15936;SDS011;9163;48.818;8.976;2022-07-29T04:02:08;5.10;;;3.83;;
15936;SDS011;9163;48.818;8.976;2022-07-29T04:04:37;4.57;;;3.43;;
15936;SDS011;9163;48.818;8.976;2022-07-29T04:07:05;4.33;;;3.67;;
15936;SDS011;9163;48.818;8.976;2022-07-29T04:09:32;3.80;;;3.50;;
15936;SDS011;9163;48.818;8.976;2022-07-29T04:12:01;4.73;;;3.60;;
15936;SDS011;9163;48.818;8.976;2022-07-29T04:14:30;4.10;;;3.70;;
15936;SDS011;9163;48.818;8.976;2022-07-29T04:16:58;4.10;;;3.70;;
15936;SDS011;9163;48.818;8.976;2022-07-29T04:19:26;5.10;;;4.20;;
15936;SDS011;9163;48.818;8.976;2022-07-29T04:21:53;4.90;;;3.90;;
15936;SDS011;9163;48.818;8.976;2022-07-29T04:24:21;5.53;;;4.50;;
15936;SDS011;9163;48.818;8.976;2022-07-29T04:26:48;4.57;;;4.17;;
15936;SDS011;9163;48.818;8.976;2022-07-29T04:29:17;5.00;;;4.50;;
15936;SDS011;9163;48.818;8.976;2022-07-29T04:31:45;5.10;;;4.50;;
15936;SDS011;9163;48.818;8.976;2022-07-29T04:34:12;4.80;;;4.30;;
15936;SDS011;9163;48.818;8.976;2022-07-29T04:36:40;5.13;;;4.63;;
15936;SDS011;9163;48.818;8.976;2022-07-29T04:39:07;5.57;;;4.60;;
15936;SDS011;9163;48.818;8.976;2022-07-29T04:41:35;5.57;;;4.60;;
15936;SDS011;9163;48.818;8.976;2022-07-29T04:44:03;4.90;;;4.50;;
15936;SDS011;9163;48.818;8.976;2022-07-29T04:46:32;5.03;;;4.53;;
15936;SDS011;9163;48.818;8.976;2022-07-29T04:49:00;4.83;;;4.43;;
15936;SDS011;9163;48.818;8.976;2022-07-29T04:51:27;6.57;;;4.17;;
15936;SDS011;9163;48.818;8.976;2022-07-29T04:53:54;5.60;;;4.43;;
15936;SDS011;9163;48.818;8.976;2022-07-29T04:56:22;6.13;;;4.47;;
15936;SDS011;9163;48.818;8.976;2022-07-29T04:58:49;5.27;;;4.77;;
15936;SDS011;9163;48.818;8.976;2022-07-29T05:01:17;4.70;;;4.30;;
15936;SDS011;9163;48.818;8.976;2022-07-29T05:03:46;5.37;;;4.70;;
15936;SDS011;9163;48.818;8.976;2022-07-29T05:06:13;5.07;;;4.53;;
15936;SDS011;9163;48.818;8.976;2022-07-29T05:08:40;5.03;;;4.50;;
15936;SDS011;9163;48.818;8.976;2022-07-29T05:11:08;6.30;;;4.50;;
15936;SDS011;9163;48.818;8.976;2022-07-29T05:13:35;4.97;;;4.30;;
15936;SDS011;9163;48.818;8.976;2022-07-29T05:16:03;4.67;;;4.10;;
15936;SDS011;9163;48.818;8.976;2022-07-29T05:18:30;6.50;;;4.70;;
15936;SDS011;9163;48.818;8.976;2022-07-29T05:21:00;4.93;;;4.40;;
15936;SDS011;9163;48.818;8.976;2022-07-29T05:23:27;4.87;;;4.20;;
15936;SDS011;9163;48.818;8.976;2022-07-29T05:25:55;4.80;;;4.30;;
15936;SDS011;9163;48.818;8.976;2022-07-29T05:28:22;5.30;;;4.80;;
15936;SDS011;9163;48.818;8.976;2022-07-29T05:30:49;5.00;;;4.60;;
15936;SDS011;9163;48.818;8.976;2022-07-29T05:33:17;6.50;;;4.83;;
15936;SDS011;9163;48.818;8.976;2022-07-29T05:35:44;6.80;;;5.30;;
15936;SDS011;9163;48.818;8.976;2022-07-29T05:38:13;5.13;;;4.63;;
15936;SDS011;9163;48.818;8.976;2022-07-29T05:40:40;8.47;;;4.73;;
15936;SDS011;9163;48.818;8.976;2022-07-29T05:43:07;5.40;;;4.60;;
15936;SDS011;9163;48.818;8.976;2022-07-29T05:45:35;7.50;;;5.20;;
15936;SDS011;9163;48.818;8.976;2022-07-29T05:48:02;5.53;;;4.80;;
15936;SDS011;9163;48.818;8.976;2022-07-29T05:50:30;5.60;;;4.50;;
15936;SDS011;9163;48.818;8.976;2022-07-29T05:52:57;6.40;;;4.60;;
15936;SDS011;9163;48.818;8.976;2022-07-29T05:55:26;5.87;;;4.47;;
15936;SDS011;9163;48.818;8.976;2022-07-29T05:57:53;5.20;;;4.70;;
15936;SDS011;9163;48.818;8.976;2022-07-29T06:00:21;5.07;;;4.57;;
15936;SDS011;9163;48.818;8.976;2022-07-29T06:02:49;7.27;;;5.00;;
15936;SDS011;9163;48.818;8.976;2022-07-29T06:05:16;5.00;;;4.50;;
15936;SDS011;9163;48.818;8.976;2022-07-29T06:07:44;6.47;;;4.70;;
15936;SDS011;9163;48.818;8.976;2022-07-29T06:10:11;6.17;;;4.53;;
15936;SDS011;9163;48.818;8.976;2022-07-29T06:12:40;5.23;;;4.40;;
15936;SDS011;9163;48.818;8.976;2022-07-29T06:15:08;4.80;;;4.30;;
15936;SDS011;9163;48.818;8.976;2022-07-29T06:17:36;4.90;;;4.27;;
15936;SDS011;9163;48.818;8.976;2022-07-29T06:20:03;6.03;;;4.80;;
15936;SDS011;9163;48.818;8.976;2022-07-29T06:22:31;6.43;;;4.77;;
15936;SDS011;9163;48.818;8.976;2022-07-29T06:24:59;6.97;;;4.60;;
15936;SDS011;9163;48.818;8.976;2022-07-29T06:27:27;5.43;;;4.50;;
15936;SDS011;9163;48.818;8.976;2022-07-29T06:29:57;5.93;;;4.50;;
15936;SDS011;9163;48.818;8.976;2022-07-29T06:32:24;6.23;;;4.43;;
15936;SDS011;9163;48.818;8.976;2022-07-29T06:34:51;5.43;;;4.70;;
15936;SDS011;9163;48.818;8.976;2022-07-29T06:37:18;5.83;;;4.70;;
15936;SDS011;9163;48.818;8.976;2022-07-29T06:39:47;5.20;;;4.67;;
15936;SDS011;9163;48.818;8.976;2022-07-29T06:42:34;7.00;;;4.40;;
15936;SDS011;9163;48.818;8.976;2022-07-29T06:45:03;5.43;;;4.13;;
15936;SDS011;9163;48.818;8.976;2022-07-29T06:47:31;6.90;;;4.40;;
15936;SDS011;9163;48.818;8.976;2022-07-29T06:49:59;6.17;;;4.77;;
15936;SDS011;9163;48.818;8.976;2022-07-29T06:52:26;5.83;;;4.20;;
15936;SDS011;9163;48.818;8.976;2022-07-29T06:54:53;4.77;;;4.30;;
15936;SDS011;9163;48.818;8.976;2022-07-29T06:57:21;6.53;;;4.67;;
15936;SDS011;9163;48.818;8.976;2022-07-29T06:59:48;6.80;;;4.40;;
15936;SDS011;9163;48.818;8.976;2022-07-29T07:02:17;8.33;;;4.40;;
15936;SDS011;9163;48.818;8.976;2022-07-29T07:04:44;5.27;;;4.17;;
15936;SDS011;9163;48.818;8.976;2022-07-29T07:07:11;8.40;;;4.50;;
15936;SDS011;9163;48.818;8.976;2022-07-29T07:09:39;8.80;;;4.57;;
15936;SDS011;9163;48.818;8.976;2022-07-29T07:12:06;7.63;;;4.30;;
15936;SDS011;9163;48.818;8.976;2022-07-29T07:14:34;6.13;;;4.83;;
15936;SDS011;9163;48.818;8.976;2022-07-29T07:17:01;8.03;;;4.13;;
15936;SDS011;9163;48.818;8.976;2022-07-29T07:19:31;7.57;;;4.20;;
15936;SDS011;9163;48.818;8.976;2022-07-29T07:21:58;4.77;;;3.80;;
15936;SDS011;9163;48.818;8.976;2022-07-29T07:24:26;6.30;;;4.00;;
15936;SDS011;9163;48.818;8.976;2022-07-29T07:26:53;6.40;;;4.37;;
15936;SDS011;9163;48.818;8.976;2022-07-29T07:29:20;4.88;;;4.03;;
15936;SDS011;9163;48.818;8.976;2022-07-29T07:31:48;5.82;;;4.10;;
15936;SDS011;9163;48.818;8.976;2022-07-29T07:34:15;5.27;;;4.20;;
15936;SDS011;9163;48.818;8.976;2022-07-29T07:36:44;6.20;;;4.38;;
15936;SDS011;9163;48.818;8.976;2022-07-29T07:39:11;6.72;;;3.97;;
15936;SDS011;9163;48.818;8.976;2022-07-29T07:41:39;5.13;;;3.80;;
15936;SDS011;9163;48.818;8.976;2022-07-29T07:44:06;6.22;;;4.25;;
15936;SDS011;9163;48.818;8.976;2022-07-29T07:46:33;6.20;;;3.97;;
15936;SDS011;9163;48.818;8.976;2022-07-29T07:49:01;6.32;;;3.70;;
15936;SDS011;9163;48.818;8.976;2022-07-29T07:51:29;7.38;;;3.72;;
15936;SDS011;9163;48.818;8.976;2022-07-29T07:53:57;5.25;;;4.15;;
15936;SDS011;9163;48.818;8.976;2022-07-29T07:56:25;4.82;;;3.83;;
15936;SDS011;9163;48.818;8.976;2022-07-29T07:58:52;5.68;;;3.63;;
15936;SDS011;9163;48.818;8.976;2022-07-29T08:01:19;4.95;;;3.40;;
15936;SDS011;9163;48.818;8.976;2022-07-29T08:03:48;4.63;;;3.15;;
15936;SDS011;9163;48.818;8.976;2022-07-29T08:06:16;6.30;;;3.92;;
15936;SDS011;9163;48.818;8.976;2022-07-29T08:08:43;4.63;;;3.53;;
15936;SDS011;9163;48.818;8.976;2022-07-29T08:11:12;6.32;;;3.40;;
15936;SDS011;9163;48.818;8.976;2022-07-29T08:13:40;5.68;;;3.50;;
15936;SDS011;9163;48.818;8.976;2022-07-29T08:16:08;3.67;;;3.38;;
15936;SDS011;9163;48.818;8.976;2022-07-29T08:18:38;4.75;;;3.50;;
15936;SDS011;9163;48.818;8.976;2022-07-29T08:21:07;5.57;;;3.60;;
15936;SDS011;9163;48.818;8.976;2022-07-29T08:23:34;3.60;;;3.30;;
15936;SDS011;9163;48.818;8.976;2022-07-29T08:26:05;5.03;;;3.80;;
15936;SDS011;9163;48.818;8.976;2022-07-29T08:28:37;6.38;;;3.65;;
15936;SDS011;9163;48.818;8.976;2022-07-29T08:31:05;7.93;;;4.00;;
15936;SDS011;9163;48.818;8.976;2022-07-29T08:33:33;7.72;;;3.50;;
15936;SDS011;9163;48.818;8.976;2022-07-29T08:36:00;3.92;;;3.58;;
15936;SDS011;9163;48.818;8.976;2022-07-29T08:38:28;6.72;;;4.07;;
15936;SDS011;9163;48.818;8.976;2022-07-29T08:40:55;4.30;;;3.80;;
15936;SDS011;9163;48.818;8.976;2022-07-29T08:43:23;5.78;;;3.90;;
15936;SDS011;9163;48.818;8.976;2022-07-29T08:45:52;7.43;;;3.75;;
15936;SDS011;9163;48.818;8.976;2022-07-29T08:48:20;6.88;;;3.97;;
15936;SDS011;9163;48.818;8.976;2022-07-29T08:50:49;5.60;;;5.10;;
15936;SDS011;9163;48.818;8.976;2022-07-29T08:53:21;5.80;;;3.60;;
15936;SDS011;9163;48.818;8.976;2022-07-29T08:55:52;5.53;;;3.80;;
15936;SDS011;9163;48.818;8.976;2022-07-29T08:58:20;4.00;;;3.47;;
15936;SDS011;9163;48.818;8.976;2022-07-29T09:00:50;3.72;;;3.25;;
15936;SDS011;9163;48.818;8.976;2022-07-29T09:03:20;7.60;;;3.47;;
15936;SDS011;9163;48.818;8.976;2022-07-29T09:05:50;5.75;;;3.20;;
15936;SDS011;9163;48.818;8.976;2022-07-29T09:08:18;4.75;;;3.30;;
15936;SDS011;9163;48.818;8.976;2022-07-29T09:10:46;8.13;;;3.72;;
15936;SDS011;9163;48.818;8.976;2022-07-29T09:13:14;5.72;;;3.58;;
15936;SDS011;9163;48.818;8.976;2022-07-29T09:15:42;6.88;;;4.22;;
15936;SDS011;9163;48.818;8.976;2022-07-29T09:18:10;4.43;;;3.42;;
15936;SDS011;9163;48.818;8.976;2022-07-29T09:20:38;4.78;;;3.78;;
15936;SDS011;9163;48.818;8.976;2022-07-29T09:23:22;4.45;;;3.70;;
15936;SDS011;9163;48.818;8.976;2022-07-29T09:25:50;6.78;;;3.75;;
15936;SDS011;9163;48.818;8.976;2022-07-29T09:28:17;4.55;;;3.50;;
15936;SDS011;9163;48.818;8.976;2022-07-29T09:30:51;4.00;;;2.97;;
15936;SDS011;9163;48.818;8.976;2022-07-29T09:33:21;5.13;;;3.13;;
15936;SDS011;9163;48.818;8.976;2022-07-29T09:35:58;5.78;;;3.75;;
15936;SDS011;9163;48.818;8.976;2022-07-29T09:38:26;5.10;;;3.47;;
15936;SDS011;9163;48.818;8.976;2022-07-29T09:40:57;6.07;;;3.60;;
15936;SDS011;9163;48.818;8.976;2022-07-29T09:43:25;3.50;;;3.15;;
15936;SDS011;9163;48.818;8.976;2022-07-29T09:45:53;6.78;;;3.03;;
15936;SDS011;9163;48.818;8.976;2022-07-29T09:48:22;4.18;;;3.42;;
15936;SDS011;9163;48.818;8.976;2022-07-29T09:50:51;4.72;;;3.28;;
15936;SDS011;9163;48.818;8.976;2022-07-29T09:53:30;5.55;;;3.22;;
15936;SDS011;9163;48.818;8.976;2022-07-29T09:55:58;5.55;;;3.35;;
15936;SDS011;9163;48.818;8.976;2022-07-29T09:58:25;5.20;;;3.40;;
15936;SDS011;9163;48.818;8.976;2022-07-29T10:00:54;4.45;;;3.40;;
15936;SDS011;9163;48.818;8.976;2022-07-29T10:03:23;5.00;;;3.50;;
15936;SDS011;9163;48.818;8.976;2022-07-29T10:06:04;5.75;;;3.67;;
15936;SDS011;9163;48.818;8.976;2022-07-29T10:08:32;5.32;;;3.97;;
15936;SDS011;9163;48.818;8.976;2022-07-29T10:11:08;7.10;;;3.72;;
15936;SDS011;9163;48.818;8.976;2022-07-29T10:13:37;5.55;;;3.30;;
15936;SDS011;9163;48.818;8.976;2022-07-29T10:16:06;6.40;;;3.50;;
15936;SDS011;9163;48.818;8.976;2022-07-29T10:18:35;5.47;;;3.33;;
15936;SDS011;9163;48.818;8.976;2022-07-29T10:21:04;4.78;;;3.53;;
15936;SDS011;9163;48.818;8.976;2022-07-29T10:23:32;6.30;;;3.60;;
15936;SDS011;9163;48.818;8.976;2022-07-29T10:26:01;6.13;;;3.60;;
15936;SDS011;9163;48.818;8.976;2022-07-29T10:28:29;6.22;;;3.38;;
15936;SDS011;9163;48.818;8.976;2022-07-29T10:30:59;4.95;;;3.47;;
15936;SDS011;9163;48.818;8.976;2022-07-29T10:33:38;7.72;;;3.30;;
15936;SDS011;9163;48.818;8.976;2022-07-29T10:39:11;6.65;;;3.15;;
15936;SDS011;9163;48.818;8.976;2022-07-29T10:41:52;6.40;;;3.22;;
15936;SDS011;9163;48.818;8.976;2022-07-29T10:44:28;7.63;;;3.10;;
15936;SDS011;9163;48.818;8.976;2022-07-29T10:46:56;5.85;;;3.38;;
15936;SDS011;9163;48.818;8.976;2022-07-29T10:49:25;5.65;;;3.47;;
15936;SDS011;9163;48.818;8.976;2022-07-29T10:51:56;4.95;;;3.30;;
15936;SDS011;9163;48.818;8.976;2022-07-29T10:54:44;7.45;;;4.05;;
15936;SDS011;9163;48.818;8.976;2022-07-29T10:57:25;7.10;;;4.72;;
15936;SDS011;9163;48.818;8.976;2022-07-29T11:02:58;8.20;;;5.50;;
15936;SDS011;9163;48.818;8.976;2022-07-29T11:05:27;10.20;;;5.60;;
15936;SDS011;9163;48.818;8.976;2022-07-29T11:10:45;8.77;;;5.83;;
15936;SDS011;9163;48.818;8.976;2022-07-29T11:13:24;10.33;;;5.37;;
15936;SDS011;9163;48.818;8.976;2022-07-29T11:16:13;9.63;;;6.10;;
15936;SDS011;9163;48.818;8.976;2022-07-29T11:21:47;8.70;;;6.33;;
15936;SDS011;9163;48.818;8.976;2022-07-29T11:24:16;6.28;;;5.22;;
15936;SDS011;9163;48.818;8.976;2022-07-29T11:29:35;7.25;;;5.00;;
15936;SDS011;9163;48.818;8.976;2022-07-29T11:32:09;7.47;;;5.20;;
15936;SDS011;9163;48.818;8.976;2022-07-29T11:34:37;6.95;;;5.60;;
15936;SDS011;9163;48.818;8.976;2022-07-29T11:37:22;6.03;;;4.85;;
15936;SDS011;9163;48.818;8.976;2022-07-29T11:42:49;7.35;;;5.18;;
15936;SDS011;9163;48.818;8.976;2022-07-29T11:45:18;6.65;;;5.35;;
15936;SDS011;9163;48.818;8.976;2022-07-29T11:47:47;7.10;;;5.93;;
15936;SDS011;9163;48.818;8.976;2022-07-29T11:50:17;8.18;;;5.20;;
15936;SDS011;9163;48.818;8.976;2022-07-29T11:52:55;7.60;;;5.40;;
15936;SDS011;9163;48.818;8.976;2022-07-29T11:55:23;7.78;;;5.72;;
15936;SDS011;9163;48.818;8.976;2022-07-29T11:57:51;8.00;;;5.35;;
15936;SDS011;9163;48.818;8.976;2022-07-29T12:00:21;7.97;;;5.10;;
15936;SDS011;9163;48.818;8.976;2022-07-29T12:02:59;6.30;;;5.60;;
15936;SDS011;9163;48.818;8.976;2022-07-29T12:05:33;5.90;;;5.25;;
15936;SDS011;9163;48.818;8.976;2022-07-29T12:08:11;6.90;;;5.22;;
15936;SDS011;9163;48.818;8.976;2022-07-29T12:10:40;5.78;;;4.90;;
15936;SDS011;9163;48.818;8.976;2022-07-29T12:13:08;5.20;;;4.60;;
15936;SDS011;9163;48.818;8.976;2022-07-29T12:15:37;6.00;;;4.47;;
15936;SDS011;9163;48.818;8.976;2022-07-29T12:18:11;4.82;;;4.30;;
15936;SDS011;9163;48.818;8.976;2022-07-29T12:20:40;4.85;;;4.38;;
15936;SDS011;9163;48.818;8.976;2022-07-29T12:23:08;5.45;;;4.30;;
15936;SDS011;9163;48.818;8.976;2022-07-29T12:25:39;5.00;;;4.38;;
15936;SDS011;9163;48.818;8.976;2022-07-29T12:28:08;6.22;;;4.38;;
15936;SDS011;9163;48.818;8.976;2022-07-29T12:30:39;5.45;;;4.90;;
15936;SDS011;9163;48.818;8.976;2022-07-29T12:33:14;5.83;;;4.40;;
15936;SDS011;9163;48.818;8.976;2022-07-29T12:35:45;6.33;;;4.83;;
15936;SDS011;9163;48.818;8.976;2022-07-29T12:38:16;5.87;;;4.60;;
15936;SDS011;9163;48.818;8.976;2022-07-29T12:40:44;6.60;;;5.20;;
15936;SDS011;9163;48.818;8.976;2022-07-29T12:43:13;5.43;;;4.47;;
15936;SDS011;9163;48.818;8.976;2022-07-29T12:45:42;5.30;;;4.80;;
15936;SDS011;9163;48.818;8.976;2022-07-29T12:48:10;5.80;;;4.90;;
15936;SDS011;9163;48.818;8.976;2022-07-29T12:50:54;5.37;;;4.10;;
15936;SDS011;9163;48.818;8.976;2022-07-29T12:53:24;4.53;;;3.80;;
15936;SDS011;9163;48.818;8.976;2022-07-29T12:55:53;6.67;;;4.60;;
15936;SDS011;9163;48.818;8.976;2022-07-29T12:58:31;5.00;;;4.00;;
15936;SDS011;9163;48.818;8.976;2022-07-29T13:01:04;6.23;;;4.17;;
15936;SDS011;9163;48.818;8.976;2022-07-29T13:03:43;5.70;;;3.80;;
15936;SDS011;9163;48.818;8.976;2022-07-29T13:06:27;5.27;;;3.90;;
15936;SDS011;9163;48.818;8.976;2022-07-29T13:09:00;5.37;;;3.87;;
15936;SDS011;9163;48.818;8.976;2022-07-29T13:11:30;5.63;;;3.97;;
15936;SDS011;9163;48.818;8.976;2022-07-29T13:13:59;6.90;;;4.30;;
15936;SDS011;9163;48.818;8.976;2022-07-29T13:16:26;5.07;;;3.97;;
15936;SDS011;9163;48.818;8.976;2022-07-29T13:19:06;4.83;;;4.20;;
15936;SDS011;9163;48.818;8.976;2022-07-29T13:21:36;6.33;;;4.60;;
15936;SDS011;9163;48.818;8.976;2022-07-29T13:24:06;5.90;;;4.03;;
15936;SDS011;9163;48.818;8.976;2022-07-29T13:26:33;4.20;;;3.80;;
15936;SDS011;9163;48.818;8.976;2022-07-29T13:29:02;6.27;;;4.57;;
15936;SDS011;9163;48.818;8.976;2022-07-29T13:31:29;5.90;;;5.10;;
15936;SDS011;9163;48.818;8.976;2022-07-29T13:33:57;5.63;;;4.60;;
15936;SDS011;9163;48.818;8.976;2022-07-29T13:36:24;5.67;;;4.73;;
15936;SDS011;9163;48.818;8.976;2022-07-29T13:38:52;4.93;;;4.17;;
15936;SDS011;9163;48.818;8.976;2022-07-29T13:41:21;5.63;;;4.10;;
15936;SDS011;9163;48.818;8.976;2022-07-29T13:43:48;4.87;;;4.30;;
15936;SDS011;9163;48.818;8.976;2022-07-29T13:46:15;4.80;;;3.90;;
15936;SDS011;9163;48.818;8.976;2022-07-29T13:48:43;5.97;;;4.35;;
15936;SDS011;9163;48.818;8.976;2022-07-29T13:51:10;5.83;;;4.47;;
15936;SDS011;9163;48.818;8.976;2022-07-29T13:53:37;6.10;;;4.27;;
15936;SDS011;9163;48.818;8.976;2022-07-29T13:56:05;5.43;;;4.22;;
15936;SDS011;9163;48.818;8.976;2022-07-29T13:58:33;5.03;;;4.20;;
15936;SDS011;9163;48.818;8.976;2022-07-29T14:01:01;6.07;;;4.47;;
15936;SDS011;9163;48.818;8.976;2022-07-29T14:03:29;5.32;;;4.03;;
15936;SDS011;9163;48.818;8.976;2022-07-29T14:05:56;5.10;;;4.57;;
15936;SDS011;9163;48.818;8.976;2022-07-29T14:08:25;6.28;;;4.30;;
15936;SDS011;9163;48.818;8.976;2022-07-29T14:10:53;5.95;;;3.92;;
15936;SDS011;9163;48.818;8.976;2022-07-29T14:13:20;4.28;;;3.70;;
15936;SDS011;9163;48.818;8.976;2022-07-29T14:15:49;7.22;;;4.13;;
15936;SDS011;9163;48.818;8.976;2022-07-29T14:18:16;4.88;;;4.30;;
15936;SDS011;9163;48.818;8.976;2022-07-29T14:20:43;5.28;;;4.32;;
15936;SDS011;9163;48.818;8.976;2022-07-29T14:23:11;5.20;;;4.28;;
15936;SDS011;9163;48.818;8.976;2022-07-29T14:25:38;5.85;;;4.13;;
15936;SDS011;9163;48.818;8.976;2022-07-29T14:28:05;5.90;;;4.20;;
15936;SDS011;9163;48.818;8.976;2022-07-29T14:30:33;5.97;;;4.20;;
15936;SDS011;9163;48.818;8.976;2022-07-29T14:33:02;5.00;;;4.07;;
15936;SDS011;9163;48.818;8.976;2022-07-29T14:35:29;6.07;;;4.32;;
15936;SDS011;9163;48.818;8.976;2022-07-29T14:37:56;6.22;;;4.18;;
15936;SDS011;9163;48.818;8.976;2022-07-29T14:40:24;4.40;;;4.00;;
15936;SDS011;9163;48.818;8.976;2022-07-29T14:42:53;5.15;;;3.78;;
15936;SDS011;9163;48.818;8.976;2022-07-29T14:45:21;4.03;;;3.63;;
15936;SDS011;9163;48.818;8.976;2022-07-29T14:47:48;4.60;;;3.92;;
15936;SDS011;9163;48.818;8.976;2022-07-29T14:50:17;6.00;;;3.60;;
15936;SDS011;9163;48.818;8.976;2022-07-29T14:52:45;6.22;;;4.07;;
15936;SDS011;9163;48.818;8.976;2022-07-29T14:55:12;4.80;;;3.92;;
15936;SDS011;9163;48.818;8.976;2022-07-29T14:57:40;6.05;;;4.05;;
15936;SDS011;9163;48.818;8.976;2022-07-29T15:00:07;7.93;;;4.00;;
15936;SDS011;9163;48.818;8.976;2022-07-29T15:02:36;5.97;;;4.13;;
15936;SDS011;9163;48.818;8.976;2022-07-29T15:05:04;6.80;;;3.55;;
15936;SDS011;9163;48.818;8.976;2022-07-29T15:07:33;4.90;;;3.38;;
15936;SDS011;9163;48.818;8.976;2022-07-29T15:10:00;7.43;;;3.30;;
15936;SDS011;9163;48.818;8.976;2022-07-29T15:12:29;4.25;;;3.00;;
15936;SDS011;9163;48.818;8.976;2022-07-29T15:14:57;6.50;;;3.42;;
15936;SDS011;9163;48.818;8.976;2022-07-29T15:17:24;5.95;;;3.47;;
15936;SDS011;9163;48.818;8.976;2022-07-29T15:19:51;5.30;;;3.67;;
15936;SDS011;9163;48.818;8.976;2022-07-29T15:22:19;5.03;;;3.60;;
15936;SDS011;9163;48.818;8.976;2022-07-29T15:24:48;7.22;;;3.67;;
15936;SDS011;9163;48.818;8.976;2022-07-29T15:27:15;5.38;;;3.90;;
15936;SDS011;9163;48.818;8.976;2022-07-29T15:29:43;3.95;;;3.53;;
15936;SDS011;9163;48.818;8.976;2022-07-29T15:32:10;5.45;;;3.55;;